sensor_id;sensor_type;location;lat;lon;timestamp;P1;durP1;ratioP1;P2;durP2;ratioP2
39882;SDS011;55824;52.220;21.040;2023-04-25T00:01:11;5.88;;;4.53;;
39882;SDS011;55824;52.220;21.040;2023-04-25T00:03:38;6.72;;;4.85;;
39882;SDS011;55824;52.220;21.040;2023-04-25T00:06:04;6.63;;;4.60;;
39882;SDS011;55824;52.220;21.040;2023-04-25T00:08:31;5.75;;;4.53;;
39882;SDS011;55824;52.220;21.040;2023-04-25T00:10:57;8.68;;;4.85;;
39882;SDS011;55824;52.220;21.040;2023-04-25T00:13:23;7.05;;;4.72;;
39882;SDS011;55824;52.220;21.040;2023-04-25T00:15:50;5.63;;;4.60;;
39882;SDS011;55824;52.220;21.040;2023-04-25T00:18:18;4.75;;;3.85;;
39882;SDS011;55824;52.220;21.040;2023-04-25T00:20:44;6.07;;;4.80;;
39882;SDS011;55824;52.220;21.040;2023-04-25T00:23:12;8.40;;;4.32;;
39882;SDS011;55824;52.220;21.040;2023-04-25T00:25:43;5.63;;;4.68;;
39882;SDS011;55824;52.220;21.040;2023-04-25T00:28:09;6.25;;;4.97;;
39882;SDS011;55824;52.220;21.040;2023-04-25T00:30:35;6.57;;;5.13;;
39882;SDS011;55824;52.220;21.040;2023-04-25T00:33:01;6.07;;;4.38;;
39882;SDS011;55824;52.220;21.040;2023-04-25T00:35:27;6.20;;;4.45;;
39882;SDS011;55824;52.220;21.040;2023-04-25T00:37:53;5.43;;;4.22;;
39882;SDS011;55824;52.220;21.040;2023-04-25T00:40:20;5.40;;;4.13;;
39882;SDS011;55824;52.220;21.040;2023-04-25T00:42:46;8.50;;;5.32;;
39882;SDS011;55824;52.220;21.040;2023-04-25T00:45:12;6.32;;;5.00;;
39882;SDS011;55824;52.220;21.040;2023-04-25T00:50:08;5.60;;;4.88;;
39882;SDS011;55824;52.220;21.040;2023-04-25T00:52:35;5.68;;;4.53;;
39882;SDS011;55824;52.220;21.040;2023-04-25T00:55:02;7.70;;;4.78;;
39882;SDS011;55824;52.220;21.040;2023-04-25T00:57:28;5.70;;;4.63;;
39882;SDS011;55824;52.220;21.040;2023-04-25T00:59:54;5.38;;;4.50;;
39882;SDS011;55824;52.220;21.040;2023-04-25T01:02:20;6.35;;;4.50;;
39882;SDS011;55824;52.220;21.040;2023-04-25T01:04:47;5.78;;;4.68;;
39882;SDS011;55824;52.220;21.040;2023-04-25T01:07:13;8.85;;;4.75;;
39882;SDS011;55824;52.220;21.040;2023-04-25T01:09:40;5.70;;;4.57;;
39882;SDS011;55824;52.220;21.040;2023-04-25T01:12:06;7.15;;;5.30;;
39882;SDS011;55824;52.220;21.040;2023-04-25T01:14:32;8.77;;;5.43;;
39882;SDS011;55824;52.220;21.040;2023-04-25T01:16:59;7.93;;;5.22;;
39882;SDS011;55824;52.220;21.040;2023-04-25T01:19:25;6.32;;;5.22;;
39882;SDS011;55824;52.220;21.040;2023-04-25T01:21:51;7.15;;;5.20;;
39882;SDS011;55824;52.220;21.040;2023-04-25T01:24:17;6.00;;;4.55;;
39882;SDS011;55824;52.220;21.040;2023-04-25T01:26:43;6.88;;;4.70;;
39882;SDS011;55824;52.220;21.040;2023-04-25T01:29:14;6.50;;;4.75;;
39882;SDS011;55824;52.220;21.040;2023-04-25T01:31:40;6.20;;;4.85;;
39882;SDS011;55824;52.220;21.040;2023-04-25T01:34:06;7.20;;;4.53;;
39882;SDS011;55824;52.220;21.040;2023-04-25T01:36:32;7.45;;;4.78;;
39882;SDS011;55824;52.220;21.040;2023-04-25T01:38:59;7.55;;;5.20;;
39882;SDS011;55824;52.220;21.040;2023-04-25T01:41:26;5.63;;;4.63;;
39882;SDS011;55824;52.220;21.040;2023-04-25T01:43:52;6.53;;;4.45;;
39882;SDS011;55824;52.220;21.040;2023-04-25T01:46:18;5.90;;;4.47;;
39882;SDS011;55824;52.220;21.040;2023-04-25T01:48:45;7.38;;;4.35;;
39882;SDS011;55824;52.220;21.040;2023-04-25T01:51:11;7.32;;;4.53;;
39882;SDS011;55824;52.220;21.040;2023-04-25T01:53:37;7.22;;;4.68;;
39882;SDS011;55824;52.220;21.040;2023-04-25T01:56:04;5.50;;;4.13;;
39882;SDS011;55824;52.220;21.040;2023-04-25T01:58:30;6.20;;;4.15;;
39882;SDS011;55824;52.220;21.040;2023-04-25T02:00:56;7.53;;;4.63;;
39882;SDS011;55824;52.220;21.040;2023-04-25T02:03:22;7.03;;;4.97;;
39882;SDS011;55824;52.220;21.040;2023-04-25T02:05:48;4.88;;;4.15;;
39882;SDS011;55824;52.220;21.040;2023-04-25T02:08:14;4.60;;;3.90;;
39882;SDS011;55824;52.220;21.040;2023-04-25T02:10:40;5.72;;;4.35;;
39882;SDS011;55824;52.220;21.040;2023-04-25T02:13:06;6.38;;;4.40;;
39882;SDS011;55824;52.220;21.040;2023-04-25T02:15:32;5.60;;;4.53;;
39882;SDS011;55824;52.220;21.040;2023-04-25T02:17:58;5.43;;;4.03;;
39882;SDS011;55824;52.220;21.040;2023-04-25T02:20:25;6.45;;;4.32;;
39882;SDS011;55824;52.220;21.040;2023-04-25T02:22:51;5.47;;;3.90;;
39882;SDS011;55824;52.220;21.040;2023-04-25T02:25:18;5.47;;;4.20;;
39882;SDS011;55824;52.220;21.040;2023-04-25T02:27:45;6.65;;;4.70;;
39882;SDS011;55824;52.220;21.040;2023-04-25T02:30:11;5.50;;;3.65;;
39882;SDS011;55824;52.220;21.040;2023-04-25T02:32:38;5.25;;;3.90;;
39882;SDS011;55824;52.220;21.040;2023-04-25T02:35:04;5.85;;;4.38;;
39882;SDS011;55824;52.220;21.040;2023-04-25T02:37:31;5.35;;;3.90;;
39882;SDS011;55824;52.220;21.040;2023-04-25T02:39:57;6.93;;;3.33;;
39882;SDS011;55824;52.220;21.040;2023-04-25T02:42:23;5.10;;;3.45;;
39882;SDS011;55824;52.220;21.040;2023-04-25T02:44:49;4.90;;;3.70;;
39882;SDS011;55824;52.220;21.040;2023-04-25T02:47:15;6.65;;;3.47;;
39882;SDS011;55824;52.220;21.040;2023-04-25T02:49:41;5.00;;;3.40;;
39882;SDS011;55824;52.220;21.040;2023-04-25T02:52:07;6.07;;;3.90;;
39882;SDS011;55824;52.220;21.040;2023-04-25T02:54:33;4.13;;;3.08;;
39882;SDS011;55824;52.220;21.040;2023-04-25T02:56:59;5.40;;;3.50;;
39882;SDS011;55824;52.220;21.040;2023-04-25T02:59:27;5.22;;;3.28;;
39882;SDS011;55824;52.220;21.040;2023-04-25T03:01:53;5.05;;;3.70;;
39882;SDS011;55824;52.220;21.040;2023-04-25T03:04:19;5.13;;;3.22;;
39882;SDS011;55824;52.220;21.040;2023-04-25T03:06:46;5.25;;;3.53;;
39882;SDS011;55824;52.220;21.040;2023-04-25T03:09:12;6.00;;;3.53;;
39882;SDS011;55824;52.220;21.040;2023-04-25T03:11:38;6.03;;;2.83;;
39882;SDS011;55824;52.220;21.040;2023-04-25T03:14:04;4.25;;;3.25;;
39882;SDS011;55824;52.220;21.040;2023-04-25T03:16:30;4.45;;;2.88;;
39882;SDS011;55824;52.220;21.040;2023-04-25T03:18:56;5.85;;;3.70;;
39882;SDS011;55824;52.220;21.040;2023-04-25T03:21:22;4.20;;;3.00;;
39882;SDS011;55824;52.220;21.040;2023-04-25T03:23:48;7.05;;;3.00;;
39882;SDS011;55824;52.220;21.040;2023-04-25T03:26:15;4.15;;;2.80;;
39882;SDS011;55824;52.220;21.040;2023-04-25T03:28:41;4.10;;;2.60;;
39882;SDS011;55824;52.220;21.040;2023-04-25T03:31:07;5.30;;;3.13;;
39882;SDS011;55824;52.220;21.040;2023-04-25T03:33:33;3.85;;;2.50;;
39882;SDS011;55824;52.220;21.040;2023-04-25T03:35:59;3.08;;;2.40;;
39882;SDS011;55824;52.220;21.040;2023-04-25T03:38:25;7.22;;;3.15;;
39882;SDS011;55824;52.220;21.040;2023-04-25T03:40:51;3.80;;;2.60;;
39882;SDS011;55824;52.220;21.040;2023-04-25T03:43:17;4.35;;;2.50;;
39882;SDS011;55824;52.220;21.040;2023-04-25T03:45:43;5.15;;;3.20;;
39882;SDS011;55824;52.220;21.040;2023-04-25T03:48:11;5.97;;;2.67;;
39882;SDS011;55824;52.220;21.040;2023-04-25T03:50:37;4.95;;;3.10;;
39882;SDS011;55824;52.220;21.040;2023-04-25T03:53:03;4.43;;;2.72;;
39882;SDS011;55824;52.220;21.040;2023-04-25T03:55:29;8.00;;;2.72;;
39882;SDS011;55824;52.220;21.040;2023-04-25T03:57:55;5.13;;;2.88;;
39882;SDS011;55824;52.220;21.040;2023-04-25T04:00:22;4.18;;;2.55;;
39882;SDS011;55824;52.220;21.040;2023-04-25T04:02:48;4.90;;;2.55;;
39882;SDS011;55824;52.220;21.040;2023-04-25T04:05:14;4.03;;;2.72;;
39882;SDS011;55824;52.220;21.040;2023-04-25T04:07:40;4.10;;;2.80;;
39882;SDS011;55824;52.220;21.040;2023-04-25T04:10:08;5.82;;;2.80;;
39882;SDS011;55824;52.220;21.040;2023-04-25T04:12:34;4.93;;;2.38;;
39882;SDS011;55824;52.220;21.040;2023-04-25T04:15:00;3.17;;;2.05;;
39882;SDS011;55824;52.220;21.040;2023-04-25T04:17:26;3.22;;;2.40;;
39882;SDS011;55824;52.220;21.040;2023-04-25T04:19:52;3.90;;;2.30;;
39882;SDS011;55824;52.220;21.040;2023-04-25T04:22:18;5.65;;;2.88;;
39882;SDS011;55824;52.220;21.040;2023-04-25T04:24:44;4.07;;;2.63;;
39882;SDS011;55824;52.220;21.040;2023-04-25T04:27:11;3.92;;;2.60;;
39882;SDS011;55824;52.220;21.040;2023-04-25T04:29:37;4.00;;;2.47;;
39882;SDS011;55824;52.220;21.040;2023-04-25T04:32:03;3.72;;;2.55;;
39882;SDS011;55824;52.220;21.040;2023-04-25T04:34:29;4.30;;;2.58;;
39882;SDS011;55824;52.220;21.040;2023-04-25T04:36:56;3.80;;;2.28;;
39882;SDS011;55824;52.220;21.040;2023-04-25T04:39:22;3.83;;;2.58;;
39882;SDS011;55824;52.220;21.040;2023-04-25T04:41:48;5.22;;;2.40;;
39882;SDS011;55824;52.220;21.040;2023-04-25T04:44:15;4.40;;;2.42;;
39882;SDS011;55824;52.220;21.040;2023-04-25T04:46:41;7.38;;;2.53;;
39882;SDS011;55824;52.220;21.040;2023-04-25T04:49:10;8.13;;;2.42;;
39882;SDS011;55824;52.220;21.040;2023-04-25T04:51:37;11.43;;;2.75;;
39882;SDS011;55824;52.220;21.040;2023-04-25T04:54:03;5.38;;;2.50;;
39882;SDS011;55824;52.220;21.040;2023-04-25T04:56:30;7.47;;;2.72;;
39882;SDS011;55824;52.220;21.040;2023-04-25T04:58:56;6.75;;;2.60;;
39882;SDS011;55824;52.220;21.040;2023-04-25T05:01:22;8.50;;;2.80;;
39882;SDS011;55824;52.220;21.040;2023-04-25T05:03:48;6.88;;;2.70;;
39882;SDS011;55824;52.220;21.040;2023-04-25T05:06:16;6.85;;;2.40;;
39882;SDS011;55824;52.220;21.040;2023-04-25T05:08:42;7.68;;;2.65;;
39882;SDS011;55824;52.220;21.040;2023-04-25T05:11:07;12.40;;;3.25;;
39882;SDS011;55824;52.220;21.040;2023-04-25T05:13:33;7.53;;;2.17;;
39882;SDS011;55824;52.220;21.040;2023-04-25T05:15:59;12.40;;;2.83;;
39882;SDS011;55824;52.220;21.040;2023-04-25T05:18:25;12.02;;;2.83;;
39882;SDS011;55824;52.220;21.040;2023-04-25T05:20:51;6.75;;;2.95;;
39882;SDS011;55824;52.220;21.040;2023-04-25T05:23:18;17.30;;;2.95;;
39882;SDS011;55824;52.220;21.040;2023-04-25T05:25:44;10.98;;;3.50;;
39882;SDS011;55824;52.220;21.040;2023-04-25T05:28:11;7.13;;;2.50;;
39882;SDS011;55824;52.220;21.040;2023-04-25T05:30:38;4.85;;;2.28;;
39882;SDS011;55824;52.220;21.040;2023-04-25T05:33:04;9.52;;;3.15;;
39882;SDS011;55824;52.220;21.040;2023-04-25T05:35:30;7.80;;;2.58;;
39882;SDS011;55824;52.220;21.040;2023-04-25T05:37:56;9.90;;;2.70;;
39882;SDS011;55824;52.220;21.040;2023-04-25T05:40:22;4.75;;;2.63;;
39882;SDS011;55824;52.220;21.040;2023-04-25T05:42:47;7.13;;;2.30;;
39882;SDS011;55824;52.220;21.040;2023-04-25T05:45:14;8.05;;;2.03;;
39882;SDS011;55824;52.220;21.040;2023-04-25T05:47:39;8.68;;;3.05;;
39882;SDS011;55824;52.220;21.040;2023-04-25T05:50:06;5.38;;;2.33;;
39882;SDS011;55824;52.220;21.040;2023-04-25T05:52:33;6.22;;;2.72;;
39882;SDS011;55824;52.220;21.040;2023-04-25T05:54:59;6.80;;;2.67;;
39882;SDS011;55824;52.220;21.040;2023-04-25T05:57:26;4.65;;;2.22;;
39882;SDS011;55824;52.220;21.040;2023-04-25T05:59:52;7.57;;;2.83;;
39882;SDS011;55824;52.220;21.040;2023-04-25T06:02:18;3.97;;;1.88;;
39882;SDS011;55824;52.220;21.040;2023-04-25T06:04:45;4.80;;;2.63;;
39882;SDS011;55824;52.220;21.040;2023-04-25T06:07:11;6.55;;;2.10;;
39882;SDS011;55824;52.220;21.040;2023-04-25T06:09:38;4.18;;;1.95;;
39882;SDS011;55824;52.220;21.040;2023-04-25T06:12:05;6.03;;;2.30;;
39882;SDS011;55824;52.220;21.040;2023-04-25T06:14:31;5.18;;;2.30;;
39882;SDS011;55824;52.220;21.040;2023-04-25T06:16:57;5.07;;;1.98;;
39882;SDS011;55824;52.220;21.040;2023-04-25T06:19:23;10.10;;;2.40;;
39882;SDS011;55824;52.220;21.040;2023-04-25T06:21:49;5.20;;;1.85;;
39882;SDS011;55824;52.220;21.040;2023-04-25T06:24:15;4.53;;;2.03;;
39882;SDS011;55824;52.220;21.040;2023-04-25T06:26:41;2.90;;;1.70;;
39882;SDS011;55824;52.220;21.040;2023-04-25T06:29:07;4.78;;;2.25;;
39882;SDS011;55824;52.220;21.040;2023-04-25T06:31:34;4.72;;;1.67;;
39882;SDS011;55824;52.220;21.040;2023-04-25T06:34:00;4.13;;;1.90;;
39882;SDS011;55824;52.220;21.040;2023-04-25T06:36:26;4.65;;;1.90;;
39882;SDS011;55824;52.220;21.040;2023-04-25T06:38:52;5.75;;;2.08;;
39882;SDS011;55824;52.220;21.040;2023-04-25T06:41:19;5.53;;;2.30;;
39882;SDS011;55824;52.220;21.040;2023-04-25T06:43:45;3.63;;;2.05;;
39882;SDS011;55824;52.220;21.040;2023-04-25T06:46:11;4.28;;;1.80;;
39882;SDS011;55824;52.220;21.040;2023-04-25T06:48:37;3.38;;;1.80;;
39882;SDS011;55824;52.220;21.040;2023-04-25T06:51:03;5.35;;;1.90;;
39882;SDS011;55824;52.220;21.040;2023-04-25T06:53:29;6.70;;;2.65;;
39882;SDS011;55824;52.220;21.040;2023-04-25T06:55:55;4.00;;;2.00;;
39882;SDS011;55824;52.220;21.040;2023-04-25T06:58:21;4.13;;;2.20;;
39882;SDS011;55824;52.220;21.040;2023-04-25T07:00:47;3.72;;;1.90;;
39882;SDS011;55824;52.220;21.040;2023-04-25T07:03:13;4.63;;;2.08;;
39882;SDS011;55824;52.220;21.040;2023-04-25T07:05:39;4.05;;;2.08;;
39882;SDS011;55824;52.220;21.040;2023-04-25T07:08:05;3.55;;;1.63;;
39882;SDS011;55824;52.220;21.040;2023-04-25T07:10:31;3.50;;;1.92;;
39882;SDS011;55824;52.220;21.040;2023-04-25T07:12:57;2.17;;;1.70;;
39882;SDS011;55824;52.220;21.040;2023-04-25T07:15:23;4.10;;;1.83;;
39882;SDS011;55824;52.220;21.040;2023-04-25T07:17:49;2.33;;;1.73;;
39882;SDS011;55824;52.220;21.040;2023-04-25T07:20:16;4.03;;;1.85;;
39882;SDS011;55824;52.220;21.040;2023-04-25T07:22:42;3.38;;;1.67;;
39882;SDS011;55824;52.220;21.040;2023-04-25T07:25:09;3.45;;;1.92;;
39882;SDS011;55824;52.220;21.040;2023-04-25T07:27:35;3.55;;;2.03;;
39882;SDS011;55824;52.220;21.040;2023-04-25T07:30:01;4.15;;;1.90;;
39882;SDS011;55824;52.220;21.040;2023-04-25T07:32:28;3.20;;;2.10;;
39882;SDS011;55824;52.220;21.040;2023-04-25T07:34:54;2.92;;;2.22;;
39882;SDS011;55824;52.220;21.040;2023-04-25T07:37:20;2.47;;;2.03;;
39882;SDS011;55824;52.220;21.040;2023-04-25T07:39:46;2.78;;;1.92;;
39882;SDS011;55824;52.220;21.040;2023-04-25T07:42:13;4.03;;;2.25;;
39882;SDS011;55824;52.220;21.040;2023-04-25T07:44:39;3.42;;;1.90;;
39882;SDS011;55824;52.220;21.040;2023-04-25T07:47:06;3.90;;;2.28;;
39882;SDS011;55824;52.220;21.040;2023-04-25T07:49:32;3.35;;;2.00;;
39882;SDS011;55824;52.220;21.040;2023-04-25T07:51:59;1.83;;;1.63;;
39882;SDS011;55824;52.220;21.040;2023-04-25T07:54:25;2.38;;;1.65;;
39882;SDS011;55824;52.220;21.040;2023-04-25T07:56:51;2.95;;;2.00;;
39882;SDS011;55824;52.220;21.040;2023-04-25T07:59:17;2.78;;;1.75;;
39882;SDS011;55824;52.220;21.040;2023-04-25T08:01:43;4.25;;;1.90;;
39882;SDS011;55824;52.220;21.040;2023-04-25T08:04:09;2.58;;;1.65;;
39882;SDS011;55824;52.220;21.040;2023-04-25T08:06:36;3.05;;;1.70;;
39882;SDS011;55824;52.220;21.040;2023-04-25T08:09:02;2.78;;;1.80;;
39882;SDS011;55824;52.220;21.040;2023-04-25T08:11:28;3.00;;;1.73;;
39882;SDS011;55824;52.220;21.040;2023-04-25T08:13:54;2.00;;;1.48;;
39882;SDS011;55824;52.220;21.040;2023-04-25T08:16:20;4.35;;;1.77;;
39882;SDS011;55824;52.220;21.040;2023-04-25T08:18:47;3.28;;;1.17;;
39882;SDS011;55824;52.220;21.040;2023-04-25T08:21:13;2.25;;;1.60;;
39882;SDS011;55824;52.220;21.040;2023-04-25T08:23:40;2.28;;;1.45;;
39882;SDS011;55824;52.220;21.040;2023-04-25T08:26:06;2.03;;;1.25;;
39882;SDS011;55824;52.220;21.040;2023-04-25T08:28:32;4.65;;;1.60;;
39882;SDS011;55824;52.220;21.040;2023-04-25T08:30:58;2.67;;;1.67;;
39882;SDS011;55824;52.220;21.040;2023-04-25T08:33:25;3.20;;;1.52;;
39882;SDS011;55824;52.220;21.040;2023-04-25T08:35:51;1.73;;;1.52;;
39882;SDS011;55824;52.220;21.040;2023-04-25T08:38:17;1.60;;;1.30;;
39882;SDS011;55824;52.220;21.040;2023-04-25T08:40:44;2.72;;;1.55;;
39882;SDS011;55824;52.220;21.040;2023-04-25T08:43:13;2.28;;;1.42;;
39882;SDS011;55824;52.220;21.040;2023-04-25T08:45:40;2.85;;;1.58;;
39882;SDS011;55824;52.220;21.040;2023-04-25T08:48:13;3.03;;;1.80;;
39882;SDS011;55824;52.220;21.040;2023-04-25T08:50:40;2.05;;;1.45;;
39882;SDS011;55824;52.220;21.040;2023-04-25T08:55:37;2.17;;;1.40;;
39882;SDS011;55824;52.220;21.040;2023-04-25T08:58:06;4.03;;;1.80;;
39882;SDS011;55824;52.220;21.040;2023-04-25T09:00:33;2.47;;;1.40;;
39882;SDS011;55824;52.220;21.040;2023-04-25T09:02:59;2.75;;;1.60;;
39882;SDS011;55824;52.220;21.040;2023-04-25T09:05:25;2.10;;;1.20;;
39882;SDS011;55824;52.220;21.040;2023-04-25T09:07:53;2.15;;;1.60;;
39882;SDS011;55824;52.220;21.040;2023-04-25T09:10:21;2.20;;;1.50;;
39882;SDS011;55824;52.220;21.040;2023-04-25T09:18:21;2.15;;;1.40;;
39882;SDS011;55824;52.220;21.040;2023-04-25T09:20:48;2.03;;;1.20;;
39882;SDS011;55824;52.220;21.040;2023-04-25T09:23:14;2.00;;;1.58;;
39882;SDS011;55824;52.220;21.040;2023-04-25T09:25:40;3.17;;;1.35;;
39882;SDS011;55824;52.220;21.040;2023-04-25T09:28:08;1.92;;;1.40;;
39882;SDS011;55824;52.220;21.040;2023-04-25T09:30:35;1.52;;;1.25;;
39882;SDS011;55824;52.220;21.040;2023-04-25T09:33:05;1.98;;;1.20;;
39882;SDS011;55824;52.220;21.040;2023-04-25T09:35:35;1.38;;;1.10;;
39882;SDS011;55824;52.220;21.040;2023-04-25T09:38:06;1.67;;;1.10;;
39882;SDS011;55824;52.220;21.040;2023-04-25T09:40:32;1.40;;;1.23;;
39882;SDS011;55824;52.220;21.040;2023-04-25T09:42:58;1.90;;;1.35;;
39882;SDS011;55824;52.220;21.040;2023-04-25T09:45:25;1.60;;;1.20;;
39882;SDS011;55824;52.220;21.040;2023-04-25T09:47:55;2.05;;;1.40;;
39882;SDS011;55824;52.220;21.040;2023-04-25T09:50:22;2.10;;;1.42;;
39882;SDS011;55824;52.220;21.040;2023-04-25T09:53:02;2.03;;;1.60;;
39882;SDS011;55824;52.220;21.040;2023-04-25T09:57:55;1.92;;;1.42;;
39882;SDS011;55824;52.220;21.040;2023-04-25T10:00:25;1.92;;;1.42;;
39882;SDS011;55824;52.220;21.040;2023-04-25T10:02:52;2.17;;;1.70;;
39882;SDS011;55824;52.220;21.040;2023-04-25T10:05:18;1.95;;;1.40;;
39882;SDS011;55824;52.220;21.040;2023-04-25T10:07:44;1.90;;;1.40;;
39882;SDS011;55824;52.220;21.040;2023-04-25T10:10:10;1.63;;;1.30;;
39882;SDS011;55824;52.220;21.040;2023-04-25T10:12:38;1.90;;;1.33;;
39882;SDS011;55824;52.220;21.040;2023-04-25T10:15:05;3.28;;;1.55;;
39882;SDS011;55824;52.220;21.040;2023-04-25T10:17:32;1.60;;;1.50;;
39882;SDS011;55824;52.220;21.040;2023-04-25T10:20:00;1.50;;;1.25;;
39882;SDS011;55824;52.220;21.040;2023-04-25T10:22:35;1.77;;;1.20;;
39882;SDS011;55824;52.220;21.040;2023-04-25T10:25:03;1.73;;;1.40;;
39882;SDS011;55824;52.220;21.040;2023-04-25T10:27:29;3.20;;;1.40;;
39882;SDS011;55824;52.220;21.040;2023-04-25T10:30:05;2.17;;;1.50;;
39882;SDS011;55824;52.220;21.040;2023-04-25T10:32:35;1.48;;;1.38;;
39882;SDS011;55824;52.220;21.040;2023-04-25T10:35:14;2.40;;;1.15;;
39882;SDS011;55824;52.220;21.040;2023-04-25T10:37:56;1.80;;;1.52;;
39882;SDS011;55824;52.220;21.040;2023-04-25T10:40:23;3.20;;;1.60;;
39882;SDS011;55824;52.220;21.040;2023-04-25T10:42:51;1.63;;;1.50;;
39882;SDS011;55824;52.220;21.040;2023-04-25T10:45:17;1.58;;;1.40;;
39882;SDS011;55824;52.220;21.040;2023-04-25T10:47:43;1.80;;;1.40;;
39882;SDS011;55824;52.220;21.040;2023-04-25T10:50:10;1.50;;;1.40;;
39882;SDS011;55824;52.220;21.040;2023-04-25T10:52:38;2.15;;;1.70;;
39882;SDS011;55824;52.220;21.040;2023-04-25T10:55:05;3.00;;;1.60;;
39882;SDS011;55824;52.220;21.040;2023-04-25T10:57:41;3.78;;;1.60;;
39882;SDS011;55824;52.220;21.040;2023-04-25T11:00:12;2.28;;;1.60;;
39882;SDS011;55824;52.220;21.040;2023-04-25T11:02:52;1.95;;;1.63;;
39882;SDS011;55824;52.220;21.040;2023-04-25T11:05:23;2.13;;;1.70;;
39882;SDS011;55824;52.220;21.040;2023-04-25T11:07:50;3.17;;;1.83;;
39882;SDS011;55824;52.220;21.040;2023-04-25T11:10:17;2.85;;;1.88;;
39882;SDS011;55824;52.220;21.040;2023-04-25T11:12:44;2.03;;;1.50;;
39882;SDS011;55824;52.220;21.040;2023-04-25T11:15:10;2.65;;;1.42;;
39882;SDS011;55824;52.220;21.040;2023-04-25T11:17:36;2.97;;;1.85;;
39882;SDS011;55824;52.220;21.040;2023-04-25T11:20:04;1.75;;;1.25;;
39882;SDS011;55824;52.220;21.040;2023-04-25T11:22:36;1.67;;;1.42;;
39882;SDS011;55824;52.220;21.040;2023-04-25T11:25:06;2.25;;;1.80;;
39882;SDS011;55824;52.220;21.040;2023-04-25T11:27:32;2.22;;;1.73;;
39882;SDS011;55824;52.220;21.040;2023-04-25T11:30:09;2.13;;;1.50;;
39882;SDS011;55824;52.220;21.040;2023-04-25T11:32:35;1.77;;;1.58;;
39882;SDS011;55824;52.220;21.040;2023-04-25T11:35:01;2.53;;;1.70;;
39882;SDS011;55824;52.220;21.040;2023-04-25T11:37:28;1.67;;;1.50;;
39882;SDS011;55824;52.220;21.040;2023-04-25T11:39:54;1.95;;;1.42;;
39882;SDS011;55824;52.220;21.040;2023-04-25T11:42:19;2.20;;;1.50;;
39882;SDS011;55824;52.220;21.040;2023-04-25T11:44:45;2.00;;;1.77;;
39882;SDS011;55824;52.220;21.040;2023-04-25T11:47:11;3.38;;;1.90;;
39882;SDS011;55824;52.220;21.040;2023-04-25T11:49:37;2.25;;;1.73;;
39882;SDS011;55824;52.220;21.040;2023-04-25T11:52:05;2.10;;;1.50;;
39882;SDS011;55824;52.220;21.040;2023-04-25T11:54:34;2.38;;;1.90;;
39882;SDS011;55824;52.220;21.040;2023-04-25T11:57:00;2.42;;;1.45;;
39882;SDS011;55824;52.220;21.040;2023-04-25T11:59:26;2.13;;;1.60;;
39882;SDS011;55824;52.220;21.040;2023-04-25T12:01:52;2.35;;;1.92;;
39882;SDS011;55824;52.220;21.040;2023-04-25T12:04:22;1.92;;;1.70;;
39882;SDS011;55824;52.220;21.040;2023-04-25T12:06:49;1.77;;;1.50;;
39882;SDS011;55824;52.220;21.040;2023-04-25T12:09:16;2.70;;;2.10;;
39882;SDS011;55824;52.220;21.040;2023-04-25T12:11:52;1.67;;;1.50;;
39882;SDS011;55824;52.220;21.040;2023-04-25T12:14:22;1.83;;;1.50;;
39882;SDS011;55824;52.220;21.040;2023-04-25T12:16:49;2.78;;;1.80;;
39882;SDS011;55824;52.220;21.040;2023-04-25T12:19:16;2.47;;;1.80;;
39882;SDS011;55824;52.220;21.040;2023-04-25T12:21:43;2.17;;;1.50;;
39882;SDS011;55824;52.220;21.040;2023-04-25T12:24:22;2.70;;;1.80;;
39882;SDS011;55824;52.220;21.040;2023-04-25T12:29:17;1.67;;;1.52;;
39882;SDS011;55824;52.220;21.040;2023-04-25T12:31:43;1.50;;;1.40;;
39882;SDS011;55824;52.220;21.040;2023-04-25T12:34:10;1.88;;;1.52;;
39882;SDS011;55824;52.220;21.040;2023-04-25T12:36:36;1.98;;;1.58;;
39882;SDS011;55824;52.220;21.040;2023-04-25T12:39:03;2.75;;;1.45;;
39882;SDS011;55824;52.220;21.040;2023-04-25T12:41:29;2.25;;;1.70;;
39882;SDS011;55824;52.220;21.040;2023-04-25T12:43:55;3.45;;;1.88;;
39882;SDS011;55824;52.220;21.040;2023-04-25T12:46:21;1.70;;;1.60;;
39882;SDS011;55824;52.220;21.040;2023-04-25T12:48:50;1.85;;;1.50;;
39882;SDS011;55824;52.220;21.040;2023-04-25T12:51:16;1.77;;;1.38;;
39882;SDS011;55824;52.220;21.040;2023-04-25T12:53:42;2.13;;;1.52;;
39882;SDS011;55824;52.220;21.040;2023-04-25T12:56:08;2.92;;;1.52;;
39882;SDS011;55824;52.220;21.040;2023-04-25T12:58:34;1.60;;;1.50;;
39882;SDS011;55824;52.220;21.040;2023-04-25T13:01:00;1.70;;;1.45;;
39882;SDS011;55824;52.220;21.040;2023-04-25T13:03:26;1.58;;;1.48;;
39882;SDS011;55824;52.220;21.040;2023-04-25T13:05:52;2.60;;;1.60;;
39882;SDS011;55824;52.220;21.040;2023-04-25T13:08:19;1.65;;;1.50;;
39882;SDS011;55824;52.220;21.040;2023-04-25T13:10:45;2.22;;;1.67;;
39882;SDS011;55824;52.220;21.040;2023-04-25T13:13:12;2.15;;;1.42;;
39882;SDS011;55824;52.220;21.040;2023-04-25T13:15:38;2.10;;;1.20;;
39882;SDS011;55824;52.220;21.040;2023-04-25T13:18:04;1.92;;;1.30;;
39882;SDS011;55824;52.220;21.040;2023-04-25T13:20:30;2.25;;;1.58;;
39882;SDS011;55824;52.220;21.040;2023-04-25T13:22:57;2.28;;;1.60;;
39882;SDS011;55824;52.220;21.040;2023-04-25T13:25:23;2.13;;;1.52;;
39882;SDS011;55824;52.220;21.040;2023-04-25T13:27:49;2.03;;;1.30;;
39882;SDS011;55824;52.220;21.040;2023-04-25T13:30:15;3.08;;;1.40;;
39882;SDS011;55824;52.220;21.040;2023-04-25T13:32:41;1.52;;;1.38;;
39882;SDS011;55824;52.220;21.040;2023-04-25T13:35:08;2.72;;;1.48;;
39882;SDS011;55824;52.220;21.040;2023-04-25T13:37:35;1.48;;;1.30;;
39882;SDS011;55824;52.220;21.040;2023-04-25T13:40:02;3.38;;;1.50;;
39882;SDS011;55824;52.220;21.040;2023-04-25T13:42:29;2.03;;;1.20;;
39882;SDS011;55824;52.220;21.040;2023-04-25T13:44:55;4.53;;;2.05;;
39882;SDS011;55824;52.220;21.040;2023-04-25T13:47:22;1.88;;;1.30;;
39882;SDS011;55824;52.220;21.040;2023-04-25T13:49:48;3.20;;;1.50;;
39882;SDS011;55824;52.220;21.040;2023-04-25T13:52:14;1.35;;;1.23;;
39882;SDS011;55824;52.220;21.040;2023-04-25T13:54:40;1.90;;;1.40;;
39882;SDS011;55824;52.220;21.040;2023-04-25T13:57:06;3.30;;;1.50;;
39882;SDS011;55824;52.220;21.040;2023-04-25T13:59:33;1.88;;;1.50;;
39882;SDS011;55824;52.220;21.040;2023-04-25T14:01:59;2.30;;;1.30;;
39882;SDS011;55824;52.220;21.040;2023-04-25T14:04:25;2.10;;;1.40;;
39882;SDS011;55824;52.220;21.040;2023-04-25T14:06:51;2.25;;;1.33;;
39882;SDS011;55824;52.220;21.040;2023-04-25T14:09:18;4.90;;;1.50;;
39882;SDS011;55824;52.220;21.040;2023-04-25T14:11:45;2.80;;;1.38;;
39882;SDS011;55824;52.220;21.040;2023-04-25T14:14:11;2.17;;;1.45;;
39882;SDS011;55824;52.220;21.040;2023-04-25T14:16:40;4.05;;;1.50;;
39882;SDS011;55824;52.220;21.040;2023-04-25T14:19:06;1.42;;;1.25;;
39882;SDS011;55824;52.220;21.040;2023-04-25T14:21:32;4.30;;;1.60;;
39882;SDS011;55824;52.220;21.040;2023-04-25T14:23:58;2.08;;;1.50;;
39882;SDS011;55824;52.220;21.040;2023-04-25T14:26:24;2.88;;;1.40;;
39882;SDS011;55824;52.220;21.040;2023-04-25T14:28:51;4.00;;;1.25;;
39882;SDS011;55824;52.220;21.040;2023-04-25T14:31:17;1.83;;;1.30;;
39882;SDS011;55824;52.220;21.040;2023-04-25T14:33:43;2.42;;;1.30;;
39882;SDS011;55824;52.220;21.040;2023-04-25T14:36:09;3.75;;;1.40;;
39882;SDS011;55824;52.220;21.040;2023-04-25T14:38:35;3.42;;;1.40;;
39882;SDS011;55824;52.220;21.040;2023-04-25T14:41:01;2.75;;;1.30;;
39882;SDS011;55824;52.220;21.040;2023-04-25T14:43:27;3.13;;;1.55;;
39882;SDS011;55824;52.220;21.040;2023-04-25T14:45:53;1.83;;;1.30;;